createdAt,value
2018-11-21T00:00:10.675Z,24.10
2018-11-21T00:01:10.628Z,23.70
2018-11-21T00:02:10.613Z,23.60
2018-11-21T00:03:10.602Z,22.20
2018-11-21T00:04:10.592Z,23.10
2018-11-21T00:05:10.581Z,23.20
2018-11-21T00:06:10.854Z,23.30
2018-11-21T00:07:10.557Z,22.40
2018-11-21T00:08:10.547Z,24.00
2018-11-21T00:09:10.536Z,21.60
2018-11-21T00:10:10.530Z,23.80
2018-11-21T00:11:10.514Z,22.70
2018-11-21T00:12:10.538Z,23.40
2018-11-21T00:13:10.495Z,22.80
2018-11-21T00:14:10.483Z,21.90
2018-11-21T00:15:10.472Z,23.00
2018-11-21T00:16:10.461Z,23.60
2018-11-21T00:17:10.453Z,22.80
2018-11-21T00:18:10.476Z,23.30
2018-11-21T00:19:10.429Z,24.50
2018-11-21T00:20:10.417Z,22.80
2018-11-21T00:21:10.407Z,24.20
2018-11-21T00:22:10.395Z,23.10
2018-11-21T00:23:10.385Z,22.80
2018-11-21T00:24:10.408Z,24.10
2018-11-21T00:25:10.364Z,23.00
2018-11-21T00:26:10.354Z,23.70
2018-11-21T00:27:10.375Z,23.90
2018-11-21T00:28:10.332Z,23.00
2018-11-21T00:29:10.322Z,24.70
2018-11-21T00:30:10.311Z,25.30
2018-11-21T00:31:10.300Z,22.50
2018-11-21T00:32:10.288Z,25.10
2018-11-21T00:33:10.308Z,24.60
2018-11-21T00:34:10.302Z,23.90
2018-11-21T00:35:10.255Z,23.80
2018-11-21T00:36:10.245Z,24.50
2018-11-21T00:37:10.232Z,24.10
2018-11-21T00:38:10.224Z,23.70
2018-11-21T00:39:10.212Z,23.90
2018-11-21T00:40:10.235Z,23.90
2018-11-21T00:41:10.190Z,24.00
2018-11-21T00:42:10.178Z,24.90
2018-11-21T00:43:10.167Z,23.00
2018-11-21T00:44:10.156Z,24.40
2018-11-21T00:45:10.146Z,25.00
2018-11-21T00:46:10.170Z,24.90
2018-11-21T00:47:10.128Z,22.80
2018-11-21T00:48:10.113Z,25.00
2018-11-21T00:49:10.182Z,24.10
2018-11-21T00:50:10.092Z,23.70
2018-11-21T00:51:10.080Z,24.70
2018-11-21T00:52:10.069Z,24.50
2018-11-21T00:53:10.059Z,25.30
2018-11-21T00:54:10.048Z,24.50
2018-11-21T00:55:10.080Z,24.60
2018-11-21T00:56:10.031Z,23.10
2018-11-21T00:57:10.014Z,24.90
2018-11-21T00:58:10.005Z,23.40
2018-11-21T00:59:09.992Z,25.10
2018-11-21T01:00:09.983Z,25.40
2018-11-21T01:01:10.006Z,23.90
2018-11-21T01:02:09.961Z,24.80
2018-11-21T01:03:09.950Z,23.30
2018-11-21T01:04:09.938Z,23.40
2018-11-21T01:05:09.928Z,23.90
2018-11-21T01:06:09.918Z,24.10
2018-11-21T01:07:09.938Z,24.60
2018-11-21T01:08:09.932Z,23.60
2018-11-21T01:09:09.917Z,24.60
2018-11-21T01:10:09.873Z,25.20
2018-11-21T01:11:09.862Z,24.40
2018-11-21T01:12:09.851Z,24.40
2018-11-21T01:13:10.016Z,23.70
2018-11-21T01:14:09.837Z,23.80
2018-11-21T01:15:09.819Z,24.20
2018-11-21T01:16:09.808Z,24.20
2018-11-21T01:17:09.831Z,24.20
2018-11-21T01:18:09.788Z,24.10
2018-11-21T01:19:09.776Z,24.10
2018-11-21T01:20:09.764Z,25.30
2018-11-21T01:21:09.753Z,23.90
2018-11-21T01:22:09.742Z,24.40
2018-11-21T01:23:09.769Z,24.60
2018-11-21T01:24:09.721Z,26.00
2018-11-21T01:25:09.710Z,23.80
2018-11-21T01:26:09.699Z,24.70
2018-11-21T01:27:09.690Z,25.20
2018-11-21T01:28:09.677Z,24.50
2018-11-21T01:29:09.700Z,25.20
2018-11-21T01:30:09.656Z,23.80
2018-11-21T01:31:09.643Z,24.70
2018-11-21T01:32:09.633Z,24.10
2018-11-21T01:33:09.910Z,25.00
2018-11-21T01:34:09.614Z,25.10
2018-11-21T01:35:09.634Z,26.10
2018-11-21T01:36:09.591Z,25.30
2018-11-21T01:37:09.578Z,26.80
2018-11-21T01:38:09.568Z,25.50
2018-11-21T01:39:09.557Z,25.10
2018-11-21T01:40:09.546Z,23.90
2018-11-21T01:41:09.579Z,23.70
2018-11-21T01:42:09.524Z,24.20
2018-11-21T01:43:09.514Z,25.20
2018-11-21T01:44:09.501Z,24.10
2018-11-21T01:45:09.490Z,24.10
2018-11-21T01:46:09.480Z,25.30
2018-11-21T01:47:09.500Z,23.40
2018-11-21T01:48:09.460Z,25.50
2018-11-21T01:49:09.447Z,26.30
2018-11-21T01:50:09.437Z,25.00
2018-11-21T01:51:09.425Z,25.00
2018-11-21T01:52:09.447Z,24.90
2018-11-21T01:53:09.405Z,28.20
2018-11-21T01:54:09.404Z,24.50
2018-11-21T01:55:09.382Z,23.40
2018-11-21T01:56:09.402Z,26.80
2018-11-21T01:57:09.394Z,25.20
2018-11-21T01:58:09.351Z,26.40
2018-11-21T01:59:09.342Z,25.40
2018-11-21T02:00:09.330Z,24.20
2018-11-21T02:01:09.317Z,26.50
2018-11-21T02:02:09.312Z,25.70
2018-11-21T02:03:09.330Z,25.70
2018-11-21T02:04:09.285Z,25.60
2018-11-21T02:05:09.272Z,26.00
2018-11-21T02:06:09.261Z,25.50
2018-11-21T02:07:09.252Z,27.90
2018-11-21T02:08:09.239Z,26.90
2018-11-21T02:09:09.267Z,26.10
2018-11-21T02:10:09.217Z,26.40
2018-11-21T02:11:09.210Z,25.50
2018-11-21T02:12:09.196Z,25.00
2018-11-21T02:13:09.187Z,26.20
2018-11-21T02:14:09.174Z,25.30
2018-11-21T02:15:09.206Z,25.30
2018-11-21T02:16:09.151Z,23.60
2018-11-21T02:17:09.142Z,25.00
2018-11-21T02:18:09.132Z,24.80
2018-11-21T02:19:09.119Z,25.60
2018-11-21T02:20:09.108Z,25.10
2018-11-21T02:21:09.134Z,25.10
2018-11-21T02:22:09.087Z,25.60
2018-11-21T02:23:09.077Z,27.40
2018-11-21T02:24:09.069Z,23.70
2018-11-21T02:25:09.068Z,25.60
2018-11-21T02:26:09.046Z,25.60
2018-11-21T02:27:09.068Z,27.00
2018-11-21T02:28:09.023Z,24.10
2018-11-21T02:29:09.011Z,25.50
2018-11-21T02:30:09.010Z,25.60
2018-11-21T02:31:08.991Z,25.50
2018-11-21T02:32:08.977Z,27.30
2018-11-21T02:33:09.014Z,27.10
2018-11-21T02:34:08.956Z,27.00
2018-11-21T02:35:08.948Z,24.60
2018-11-21T02:36:08.935Z,25.50
2018-11-21T02:37:08.923Z,26.00
2018-11-21T02:38:08.914Z,25.80
2018-11-21T02:39:08.942Z,25.30
2018-11-21T02:40:08.891Z,25.20
2018-11-21T02:41:08.881Z,27.70
2018-11-21T02:42:08.870Z,26.10
2018-11-21T02:43:08.859Z,24.90
2018-11-21T02:44:08.847Z,25.90
2018-11-21T02:45:09.014Z,26.60
2018-11-21T02:46:08.844Z,26.50
2018-11-21T02:47:08.814Z,27.80
2018-11-21T02:48:08.805Z,25.50
2018-11-21T02:49:08.794Z,24.70
2018-11-21T02:50:08.782Z,24.60
2018-11-21T02:51:08.813Z,24.50
2018-11-21T02:52:08.759Z,26.60
2018-11-21T02:53:08.749Z,25.60
2018-11-21T02:54:08.739Z,24.10
2018-11-21T02:55:08.731Z,25.20
2018-11-21T02:56:08.717Z,25.30
2018-11-21T02:57:08.744Z,26.70
2018-11-21T02:58:08.693Z,26.50
2018-11-21T02:59:08.724Z,23.70
2018-11-21T03:00:08.673Z,25.00
2018-11-21T03:01:08.661Z,25.90
2018-11-21T03:02:08.650Z,26.70
2018-11-21T03:03:08.642Z,25.90
2018-11-21T03:04:08.628Z,26.00
2018-11-21T03:05:08.670Z,27.20
2018-11-21T03:06:08.606Z,27.90
2018-11-21T03:07:08.595Z,26.10
2018-11-21T03:08:08.596Z,28.10
2018-11-21T03:09:08.575Z,26.20
2018-11-21T03:10:08.563Z,27.80
2018-11-21T03:11:08.597Z,25.60
2018-11-21T03:12:08.542Z,27.10
2018-11-21T03:13:08.532Z,26.80
2018-11-21T03:14:08.520Z,27.30
2018-11-21T03:15:08.509Z,27.40
2018-11-21T03:16:08.498Z,25.40
2018-11-21T03:17:08.531Z,27.20
2018-11-21T03:18:08.522Z,26.30
2018-11-21T03:19:08.465Z,28.30
2018-11-21T03:20:08.457Z,26.60
2018-11-21T03:21:08.442Z,26.00
2018-11-21T03:22:08.431Z,26.20
2018-11-21T03:23:08.423Z,26.90
2018-11-21T03:24:08.464Z,27.30
2018-11-21T03:25:08.399Z,29.00
2018-11-21T03:26:08.388Z,28.40
2018-11-21T03:27:08.376Z,28.30
2018-11-21T03:28:08.367Z,26.00
2018-11-21T03:29:08.357Z,27.70
2018-11-21T03:30:08.396Z,26.60
2018-11-21T03:31:08.337Z,29.10
2018-11-21T03:32:08.324Z,27.60
2018-11-21T03:33:08.313Z,26.60
2018-11-21T03:34:08.303Z,27.80
2018-11-21T03:35:08.290Z,26.70
2018-11-21T03:36:08.332Z,28.10
2018-11-21T03:37:08.270Z,28.40
2018-11-21T03:38:08.261Z,28.30
2018-11-21T03:39:08.247Z,27.40
2018-11-21T03:40:08.236Z,28.50
2018-11-21T03:41:08.226Z,27.50
2018-11-21T03:42:08.258Z,27.40
2018-11-21T03:43:08.203Z,29.80
2018-11-21T03:44:08.192Z,28.00
2018-11-21T03:45:08.189Z,27.30
2018-11-21T03:46:08.170Z,28.70
2018-11-21T03:47:08.206Z,29.00
2018-11-21T03:48:08.150Z,29.10
2018-11-21T03:49:08.138Z,27.10
2018-11-21T03:50:08.127Z,28.80
2018-11-21T03:51:08.117Z,28.40
2018-11-21T03:52:08.104Z,27.80
2018-11-21T03:53:08.141Z,27.60
2018-11-21T03:54:08.087Z,27.40
2018-11-21T03:55:08.079Z,29.00
2018-11-21T03:56:08.061Z,27.80
2018-11-21T03:57:08.053Z,29.20
2018-11-21T03:58:08.039Z,27.70
2018-11-21T03:59:08.075Z,28.90
2018-11-21T04:00:08.019Z,26.50
2018-11-21T04:01:08.054Z,28.70
2018-11-21T04:02:07.996Z,27.00
2018-11-21T04:03:07.985Z,27.80
2018-11-21T04:04:07.976Z,28.60
2018-11-21T04:05:07.965Z,27.50
2018-11-21T04:06:07.954Z,27.20
2018-11-21T04:07:07.990Z,28.10
2018-11-21T04:08:07.981Z,26.20
2018-11-21T04:09:07.920Z,29.00
2018-11-21T04:10:07.910Z,27.30
2018-11-21T04:11:07.897Z,28.40
2018-11-21T04:12:07.886Z,28.80
2018-11-21T04:13:07.877Z,26.20
2018-11-21T04:14:07.912Z,26.70
2018-11-21T04:15:07.855Z,27.60
2018-11-21T04:16:07.844Z,28.60
2018-11-21T04:17:07.836Z,28.20
2018-11-21T04:18:07.867Z,29.20
2018-11-21T04:19:07.811Z,27.40
2018-11-21T04:20:07.804Z,26.80
2018-11-21T04:21:07.789Z,27.50
2018-11-21T04:22:07.829Z,28.20
2018-11-21T04:23:07.767Z,28.60
2018-11-21T04:24:07.756Z,27.40
2018-11-21T04:25:07.753Z,29.30
2018-11-21T04:26:07.748Z,28.50
2018-11-21T04:27:07.724Z,27.70
2018-11-21T04:28:08.009Z,29.60
2018-11-21T04:29:07.701Z,27.00
2018-11-21T04:30:07.692Z,28.50
2018-11-21T04:31:07.679Z,27.00
2018-11-21T04:32:07.667Z,29.60
2018-11-21T04:33:07.660Z,28.60
2018-11-21T04:34:07.693Z,28.40
2018-11-21T04:35:07.634Z,27.90
2018-11-21T04:36:07.624Z,29.60
2018-11-21T04:37:07.615Z,27.50
2018-11-21T04:38:07.679Z,27.70
2018-11-21T04:39:07.594Z,30.80
2018-11-21T04:40:07.627Z,30.50
2018-11-21T04:41:07.576Z,29.50
2018-11-21T04:42:08.510Z,28.20
2018-11-21T04:43:07.547Z,28.00
2018-11-21T04:44:07.536Z,28.50
2018-11-21T04:45:07.526Z,29.60
2018-11-21T04:46:07.565Z,29.40
2018-11-21T04:47:07.504Z,29.20
2018-11-21T04:48:07.494Z,29.70
2018-11-21T04:49:07.483Z,27.50
2018-11-21T04:50:07.473Z,29.60
2018-11-21T04:51:07.462Z,28.20
2018-11-21T04:52:07.496Z,29.70
2018-11-21T04:53:07.439Z,29.10
2018-11-21T04:54:07.431Z,31.20
2018-11-21T04:55:07.417Z,29.10
2018-11-21T04:56:07.452Z,28.70
2018-11-21T04:57:07.397Z,29.90
2018-11-21T04:58:07.387Z,31.10
2018-11-21T04:59:07.420Z,29.10
2018-11-21T05:00:07.367Z,31.80
2018-11-21T05:01:07.398Z,29.90
2018-11-21T05:02:07.341Z,30.00
2018-11-21T05:03:07.331Z,30.90
2018-11-21T05:04:07.321Z,29.20
2018-11-21T05:05:07.313Z,31.00
2018-11-21T05:06:07.298Z,30.10
2018-11-21T05:07:07.346Z,32.10
2018-11-21T05:08:07.277Z,32.20
2018-11-21T05:09:07.265Z,29.60
2018-11-21T05:10:07.254Z,28.80
2018-11-21T05:11:07.243Z,31.20
2018-11-21T05:12:07.231Z,30.90
2018-11-21T05:13:07.272Z,30.30
2018-11-21T05:14:07.216Z,30.10
2018-11-21T05:15:07.201Z,31.80
2018-11-21T05:16:07.190Z,31.10
2018-11-21T05:17:07.225Z,31.60
2018-11-21T05:18:07.217Z,31.80
2018-11-21T05:19:07.157Z,29.80
2018-11-21T05:20:07.145Z,31.40
2018-11-21T05:21:07.133Z,30.10
2018-11-21T05:22:07.123Z,29.00
2018-11-21T05:23:07.112Z,31.00
2018-11-21T05:24:07.147Z,30.00
2018-11-21T05:25:07.094Z,29.10
2018-11-21T05:26:07.082Z,29.70
2018-11-21T05:27:07.069Z,31.30
2018-11-21T05:28:07.057Z,31.20
2018-11-21T05:29:07.047Z,32.20
2018-11-21T05:30:07.091Z,30.30
2018-11-21T05:31:07.029Z,29.60
2018-11-21T05:32:07.014Z,30.20
2018-11-21T05:33:07.003Z,32.40
2018-11-21T05:34:07.043Z,31.20
2018-11-21T05:35:06.981Z,31.30
2018-11-21T05:36:06.971Z,32.40
2018-11-21T05:37:06.960Z,32.20
2018-11-21T05:38:06.949Z,29.10
2018-11-21T05:39:06.937Z,29.50
2018-11-21T05:40:07.000Z,31.80
2018-11-21T05:41:06.916Z,31.00
2018-11-21T05:42:06.908Z,33.20
2018-11-21T05:43:06.892Z,31.30
2018-11-21T05:44:06.883Z,32.00
2018-11-21T05:45:06.917Z,30.70
2018-11-21T05:46:06.862Z,33.60
2018-11-21T05:47:06.850Z,31.70
2018-11-21T05:48:06.840Z,30.20
2018-11-21T05:49:06.830Z,30.90
2018-11-21T05:50:06.817Z,30.60
2018-11-21T05:51:07.001Z,28.60
2018-11-21T05:52:06.797Z,30.50
2018-11-21T05:53:06.785Z,32.00
2018-11-21T05:54:06.774Z,30.80
2018-11-21T05:55:06.765Z,30.70
2018-11-21T05:56:06.755Z,28.70
2018-11-21T05:57:06.786Z,28.90
2018-11-21T05:58:06.730Z,30.20
2018-11-21T05:59:06.769Z,30.30
2018-11-21T06:00:06.709Z,31.00
2018-11-21T06:01:06.697Z,31.40
2018-11-21T06:02:06.693Z,36.10
2018-11-21T06:03:06.682Z,35.70
2018-11-21T06:04:06.666Z,36.70
2018-11-21T06:05:06.702Z,35.10
2018-11-21T06:06:09.925Z,36.90
2018-11-21T06:07:06.636Z,36.70
2018-11-21T06:08:06.626Z,38.40
2018-11-21T06:09:06.614Z,37.10
2018-11-21T06:10:06.600Z,34.60
2018-11-21T06:11:06.647Z,35.60
2018-11-21T06:12:06.578Z,38.60
2018-11-21T06:13:06.618Z,36.70
2018-11-21T06:14:06.568Z,34.90
2018-11-21T06:15:06.599Z,37.30
2018-11-21T06:16:06.540Z,35.50
2018-11-21T06:17:06.570Z,38.20
2018-11-21T06:18:06.524Z,39.60
2018-11-21T06:19:06.504Z,36.10
2018-11-21T06:20:06.493Z,36.00
2018-11-21T06:21:06.481Z,39.10
2018-11-21T06:22:06.471Z,37.40
2018-11-21T06:23:06.507Z,37.60
2018-11-21T06:24:06.448Z,37.40
2018-11-21T06:25:06.444Z,35.50
2018-11-21T06:26:06.475Z,34.30
2018-11-21T06:27:06.417Z,37.30
2018-11-21T06:28:06.406Z,33.20
2018-11-21T06:29:06.396Z,35.60
2018-11-21T06:30:06.383Z,35.30
2018-11-21T06:31:06.401Z,32.50
2018-11-21T06:32:06.404Z,35.40
2018-11-21T06:33:06.360Z,33.10
2018-11-21T06:34:06.389Z,33.30
2018-11-21T06:35:06.331Z,35.30
2018-11-21T06:36:06.318Z,36.20
2018-11-21T06:37:06.329Z,35.80
2018-11-21T06:38:06.304Z,36.30
2018-11-21T06:39:06.289Z,37.90
2018-11-21T06:40:06.332Z,33.60
2018-11-21T06:41:06.267Z,37.90
2018-11-21T06:42:06.252Z,36.90
2018-11-21T06:43:06.242Z,35.00
2018-11-21T06:44:06.231Z,36.80
2018-11-21T06:45:06.222Z,37.80
2018-11-21T06:46:06.253Z,38.40
2018-11-21T06:47:06.198Z,36.80
2018-11-21T06:48:06.185Z,32.40
2018-11-21T06:49:06.177Z,34.40
2018-11-21T06:50:06.184Z,33.80
2018-11-21T06:51:06.181Z,34.20
2018-11-21T06:52:06.230Z,36.80
2018-11-21T06:53:06.133Z,37.40
2018-11-21T06:54:06.123Z,33.90
2018-11-21T06:55:06.113Z,35.20
2018-11-21T06:56:06.100Z,36.30
2018-11-21T06:57:06.148Z,36.00
2018-11-21T06:58:06.169Z,34.40
2018-11-21T06:59:06.085Z,35.90
2018-11-21T07:00:06.068Z,35.90
2018-11-21T07:01:06.123Z,35.40
2018-11-21T07:02:06.057Z,37.70
2018-11-21T07:03:06.053Z,39.90
2018-11-21T07:04:06.070Z,36.10
2018-11-21T07:05:06.006Z,36.40
2018-11-21T07:06:06.016Z,37.40
2018-11-21T07:07:05.981Z,34.40
2018-11-21T07:08:05.972Z,37.30
2018-11-21T07:09:06.020Z,36.70
2018-11-21T07:10:06.008Z,38.70
2018-11-21T07:11:05.943Z,36.20
2018-11-21T07:12:05.944Z,32.40
2018-11-21T07:13:11.005Z,33.40
2018-11-21T07:14:07.202Z,32.70
2018-11-21T07:15:05.908Z,33.60
2018-11-21T07:16:05.953Z,32.40
2018-11-21T07:17:05.911Z,32.90
2018-11-21T07:18:05.919Z,31.70
2018-11-21T07:19:05.856Z,29.50
2018-11-21T07:20:05.842Z,35.00
2018-11-21T07:21:05.827Z,31.10
2018-11-21T07:22:05.875Z,30.70
2018-11-21T07:23:05.808Z,31.00
2018-11-21T07:24:05.813Z,30.50
2018-11-21T07:25:05.843Z,30.30
2018-11-21T07:26:05.838Z,30.60
2018-11-21T07:27:05.790Z,30.50
2018-11-21T07:28:05.802Z,28.90
2018-11-21T07:29:05.753Z,31.00
2018-11-21T07:30:05.740Z,33.10
2018-11-21T07:31:05.739Z,31.50
2018-11-21T07:32:05.760Z,31.90
2018-11-21T07:33:05.753Z,30.20
2018-11-21T07:34:05.827Z,32.70
2018-11-21T07:35:05.714Z,30.40
2018-11-21T07:36:05.719Z,31.60
2018-11-21T07:37:05.688Z,31.60
2018-11-21T07:38:05.652Z,31.30
2018-11-21T07:39:05.632Z,29.80
2018-11-21T07:40:05.668Z,29.30
2018-11-21T07:41:05.613Z,30.20
2018-11-21T07:42:05.601Z,30.30
2018-11-21T07:43:05.594Z,30.90
2018-11-21T07:44:05.582Z,31.70
2018-11-21T07:45:05.577Z,29.00
2018-11-21T07:46:05.855Z,31.90
2018-11-21T07:47:05.621Z,31.00
2018-11-21T07:48:05.549Z,34.20
2018-11-21T07:49:05.525Z,32.70
2018-11-21T07:50:05.518Z,31.10
2018-11-21T07:51:05.502Z,30.20
2018-11-21T07:52:05.565Z,32.90
2018-11-21T07:53:05.481Z,32.20
2018-11-21T07:54:05.534Z,32.70
2018-11-21T07:55:05.476Z,32.60
2018-11-21T07:56:05.453Z,32.40
2018-11-21T07:57:05.493Z,30.00
2018-11-21T07:58:05.492Z,30.60
2018-11-21T07:59:05.417Z,31.70
2018-11-21T08:00:05.465Z,34.80
2018-11-21T08:01:05.410Z,30.60
2018-11-21T08:02:05.389Z,30.90
2018-11-21T08:03:05.382Z,30.80
2018-11-21T08:04:05.365Z,31.50
2018-11-21T08:05:05.348Z,33.50
2018-11-21T08:06:05.395Z,31.70
2018-11-21T08:07:05.331Z,30.20
2018-11-21T08:08:05.325Z,33.20
2018-11-21T08:09:05.314Z,32.60
2018-11-21T08:10:05.304Z,33.90
2018-11-21T08:11:05.290Z,33.90
2018-11-21T08:12:05.322Z,33.00
2018-11-21T08:13:05.267Z,32.60
2018-11-21T08:14:05.256Z,32.30
2018-11-21T08:15:05.249Z,31.50
2018-11-21T08:16:05.238Z,32.30
2018-11-21T08:17:05.282Z,31.00
2018-11-21T08:18:05.259Z,30.00
2018-11-21T08:19:05.200Z,31.70
2018-11-21T08:20:05.245Z,37.10
2018-11-21T08:21:05.176Z,36.40
2018-11-21T08:22:05.169Z,37.40
2018-11-21T08:23:05.283Z,37.70
2018-11-21T08:24:05.151Z,36.40
2018-11-21T08:25:05.136Z,36.10
2018-11-21T08:26:05.133Z,38.50
2018-11-21T08:27:05.132Z,35.40
2018-11-21T08:28:05.148Z,35.80
2018-11-21T08:29:05.144Z,38.40
2018-11-21T08:30:05.083Z,38.50
2018-11-21T08:31:05.072Z,39.30
2018-11-21T08:32:05.061Z,43.00
2018-11-21T08:33:05.053Z,41.30
2018-11-21T08:34:05.050Z,41.00
2018-11-21T08:35:05.072Z,43.80
2018-11-21T08:36:05.027Z,40.50
2018-11-21T08:37:05.004Z,45.10
2018-11-21T08:38:04.991Z,38.80
2018-11-21T08:39:04.986Z,40.70
2018-11-21T08:40:04.972Z,38.30
2018-11-21T08:41:05.006Z,36.80
2018-11-21T08:42:04.949Z,35.30
2018-11-21T08:43:04.955Z,38.50
2018-11-21T08:44:04.936Z,36.00
2018-11-21T08:45:04.937Z,40.80
2018-11-21T08:46:04.909Z,34.90
2018-11-21T08:47:04.944Z,36.00
2018-11-21T08:48:04.889Z,39.30
2018-11-21T08:49:04.876Z,37.60
2018-11-21T08:50:04.863Z,34.80
2018-11-21T08:51:04.895Z,36.30
2018-11-21T08:52:04.839Z,38.10
2018-11-21T08:53:04.904Z,37.60
2018-11-21T08:54:04.833Z,35.90
2018-11-21T08:55:08.917Z,34.60
2018-11-21T08:56:04.869Z,35.80
2018-11-21T08:57:04.790Z,34.90
2018-11-21T08:58:04.775Z,33.50
2018-11-21T08:59:04.821Z,37.10
2018-11-21T09:00:04.811Z,39.40
2018-11-21T09:01:04.794Z,40.20
2018-11-21T09:02:04.798Z,39.30
2018-11-21T09:03:04.719Z,38.80
2018-11-21T09:04:04.723Z,40.40
2018-11-21T09:05:04.718Z,37.20
2018-11-21T09:06:04.742Z,34.10
2018-11-21T09:07:04.683Z,38.50
2018-11-21T09:08:04.672Z,37.20
2018-11-21T09:09:04.715Z,34.70
2018-11-21T09:10:04.649Z,40.70
2018-11-21T09:11:04.687Z,37.80
2018-11-21T09:12:08.685Z,36.90
2018-11-21T09:13:04.618Z,40.20
2018-11-21T09:14:04.603Z,39.00
2018-11-21T09:15:04.597Z,39.90
2018-11-21T09:16:04.602Z,36.60
2018-11-21T09:17:04.622Z,42.20
2018-11-21T09:18:04.578Z,41.80
2018-11-21T09:19:04.600Z,36.70
2018-11-21T09:20:04.541Z,37.20
2018-11-21T09:21:04.534Z,41.10
2018-11-21T09:22:04.522Z,39.90
2018-11-21T09:23:04.796Z,36.10
2018-11-21T09:24:04.499Z,40.40
2018-11-21T09:25:04.483Z,37.90
2018-11-21T09:26:04.478Z,38.30
2018-11-21T09:27:04.465Z,36.90
2018-11-21T09:28:04.451Z,37.20
2018-11-21T09:29:04.501Z,41.50
2018-11-21T09:30:04.437Z,38.10
2018-11-21T09:31:04.433Z,36.20
2018-11-21T09:32:04.421Z,36.70
2018-11-21T09:33:04.400Z,38.80
2018-11-21T09:34:04.389Z,37.10
2018-11-21T09:35:04.490Z,36.20
2018-11-21T09:36:04.368Z,38.60
2018-11-21T09:37:04.362Z,36.60
2018-11-21T09:38:04.346Z,37.10
2018-11-21T09:39:04.342Z,34.20
2018-11-21T09:40:04.328Z,36.70
2018-11-21T09:41:04.585Z,37.00
2018-11-21T09:42:04.300Z,40.70
2018-11-21T09:43:04.290Z,35.30
2018-11-21T09:44:04.283Z,39.50
2018-11-21T09:45:04.272Z,37.70
2018-11-21T09:46:04.271Z,38.10
2018-11-21T09:47:04.301Z,35.00
2018-11-21T09:48:04.237Z,36.10
2018-11-21T09:49:04.238Z,34.80
2018-11-21T09:50:04.216Z,34.60
2018-11-21T09:51:04.205Z,35.40
2018-11-21T09:52:04.242Z,33.90
2018-11-21T09:53:04.184Z,36.80
2018-11-21T09:54:04.180Z,38.80
2018-11-21T09:55:04.214Z,41.10
2018-11-21T09:56:04.149Z,39.80
2018-11-21T09:57:04.144Z,40.20
2018-11-21T09:58:04.145Z,40.70
2018-11-21T09:59:04.122Z,35.50
2018-11-21T10:00:04.108Z,35.60
2018-11-21T10:01:04.200Z,36.50
2018-11-21T10:02:04.085Z,35.40
2018-11-21T10:03:04.079Z,37.10
2018-11-21T10:04:04.074Z,36.10
2018-11-21T10:05:04.058Z,36.60
2018-11-21T10:06:04.043Z,34.70
2018-11-21T10:07:04.080Z,36.40
2018-11-21T10:08:04.025Z,35.40
2018-11-21T10:09:04.321Z,34.30
2018-11-21T10:10:04.014Z,36.20
2018-11-21T10:11:03.987Z,35.70
2018-11-21T10:12:03.982Z,36.10
2018-11-21T10:13:03.970Z,35.00
2018-11-21T10:14:03.959Z,35.80
2018-11-21T10:15:04.003Z,34.30
2018-11-21T10:16:03.938Z,33.90
2018-11-21T10:17:03.938Z,33.50
2018-11-21T10:18:03.919Z,36.30
2018-11-21T10:19:03.905Z,33.10
2018-11-21T10:20:03.890Z,34.40
2018-11-21T10:21:03.934Z,32.20
2018-11-21T10:22:03.869Z,34.00
2018-11-21T10:23:03.898Z,30.20
2018-11-21T10:24:03.849Z,32.70
2018-11-21T10:25:03.839Z,33.20
2018-11-21T10:26:03.826Z,32.00
2018-11-21T10:27:03.862Z,38.60
2018-11-21T10:28:03.823Z,32.30
2018-11-21T10:29:03.800Z,30.50
2018-11-21T10:30:03.790Z,35.50
2018-11-21T10:31:03.774Z,32.40
2018-11-21T10:32:03.807Z,31.60
2018-11-21T10:33:03.801Z,31.70
2018-11-21T10:34:03.752Z,33.90
2018-11-21T10:35:03.736Z,33.00
2018-11-21T10:36:03.767Z,35.00
2018-11-21T10:37:03.737Z,36.40
2018-11-21T10:38:03.700Z,35.40
2018-11-21T10:39:03.690Z,36.50
2018-11-21T10:40:03.735Z,34.40
2018-11-21T10:41:03.665Z,36.50
2018-11-21T10:42:03.679Z,34.20
2018-11-21T10:43:03.648Z,33.80
2018-11-21T10:44:03.774Z,35.00
2018-11-21T10:45:03.631Z,34.10
2018-11-21T10:46:03.611Z,35.00
2018-11-21T10:47:03.601Z,32.80
2018-11-21T10:48:03.588Z,33.70
2018-11-21T10:49:03.584Z,34.50
2018-11-21T10:50:03.862Z,36.00
2018-11-21T10:51:03.569Z,34.50
2018-11-21T10:52:03.546Z,33.10
2018-11-21T10:53:03.542Z,34.30
2018-11-21T10:54:03.527Z,36.20
2018-11-21T10:55:03.516Z,34.30
2018-11-21T10:56:03.556Z,35.80
2018-11-21T10:57:03.523Z,34.20
2018-11-21T10:58:03.490Z,33.20
2018-11-21T10:59:03.472Z,35.90
2018-11-21T11:00:03.466Z,33.50
2018-11-21T11:01:03.500Z,37.40
2018-11-21T11:02:03.444Z,37.20
2018-11-21T11:03:03.428Z,31.80
2018-11-21T11:04:03.462Z,33.20
2018-11-21T11:05:03.414Z,34.60
2018-11-21T11:06:03.479Z,34.10
2018-11-21T11:07:03.394Z,34.40
2018-11-21T11:08:03.386Z,31.30
2018-11-21T11:09:03.364Z,32.20
2018-11-21T11:10:03.396Z,32.30
2018-11-21T11:11:03.363Z,30.80
2018-11-21T11:12:03.385Z,30.10
2018-11-21T11:13:03.329Z,31.20
2018-11-21T11:14:03.324Z,31.80
2018-11-21T11:15:03.298Z,30.90
2018-11-21T11:16:03.287Z,32.00
2018-11-21T11:17:03.289Z,31.70
2018-11-21T11:18:03.325Z,31.30
2018-11-21T11:19:03.256Z,29.50
2018-11-21T11:20:04.205Z,30.00
2018-11-21T11:21:03.245Z,29.30
2018-11-21T11:22:03.238Z,27.50
2018-11-21T11:23:03.212Z,28.80
2018-11-21T11:24:03.211Z,27.80
2018-11-21T11:25:03.286Z,25.50
2018-11-21T11:26:03.189Z,26.60
2018-11-21T11:27:03.169Z,27.20
2018-11-21T11:28:03.166Z,28.60
2018-11-21T11:29:03.153Z,29.10
2018-11-21T11:30:03.189Z,25.00
2018-11-21T11:31:03.174Z,26.70
2018-11-21T11:32:03.118Z,27.80
2018-11-21T11:33:03.107Z,25.90
2018-11-21T11:34:03.096Z,25.40
2018-11-21T11:35:03.083Z,26.80
2018-11-21T11:36:03.115Z,27.00
2018-11-21T11:37:03.056Z,25.70
2018-11-21T11:38:03.053Z,26.40
2018-11-21T11:39:03.036Z,27.30
2018-11-21T11:40:03.025Z,27.20
2018-11-21T11:41:03.066Z,25.90
2018-11-21T11:42:03.012Z,26.60
2018-11-21T11:43:03.007Z,27.30
2018-11-21T11:44:02.981Z,27.10
2018-11-21T11:45:02.975Z,25.20
2018-11-21T11:46:02.960Z,26.90
2018-11-21T11:47:03.005Z,24.90
2018-11-21T11:48:02.952Z,25.70
2018-11-21T11:49:02.929Z,27.70
2018-11-21T11:50:02.925Z,25.70
2018-11-21T11:51:02.910Z,27.00
2018-11-21T11:52:02.899Z,25.80
2018-11-21T11:53:02.941Z,25.90
2018-11-21T11:54:02.893Z,25.30
2018-11-21T11:55:02.876Z,24.80
2018-11-21T11:56:02.854Z,25.40
2018-11-21T11:57:02.847Z,24.10
2018-11-21T11:58:02.830Z,24.00
2018-11-21T11:59:02.872Z,24.70
2018-11-21T12:00:02.835Z,24.80
2018-11-21T12:01:02.798Z,26.30
2018-11-21T12:02:02.814Z,28.80
2018-11-21T12:03:02.782Z,25.30
2018-11-21T12:04:02.770Z,25.30
2018-11-21T12:05:02.983Z,27.30
2018-11-21T12:06:02.747Z,24.70
2018-11-21T12:07:02.735Z,24.40
2018-11-21T12:08:02.732Z,25.10
2018-11-21T12:09:02.712Z,26.80
2018-11-21T12:10:02.761Z,24.70
2018-11-21T12:11:02.760Z,24.40
2018-11-21T12:12:05.021Z,25.20
2018-11-21T12:13:02.672Z,24.80
2018-11-21T12:14:02.683Z,26.00
2018-11-21T12:15:02.650Z,24.00
2018-11-21T12:16:02.638Z,23.20
2018-11-21T12:17:02.677Z,25.30
2018-11-21T12:18:02.615Z,24.90
2018-11-21T12:19:02.604Z,25.60
2018-11-21T12:20:02.593Z,24.80
2018-11-21T12:21:02.584Z,27.10
2018-11-21T12:22:02.571Z,24.50
2018-11-21T12:23:02.854Z,25.50
2018-11-21T12:24:02.558Z,24.80
2018-11-21T12:25:02.533Z,24.60
2018-11-21T12:26:02.527Z,27.30
2018-11-21T12:27:02.513Z,27.70
2018-11-21T12:28:02.502Z,27.50
2018-11-21T12:29:02.544Z,27.00
2018-11-21T12:30:02.489Z,26.50
2018-11-21T12:31:02.482Z,25.30
2018-11-21T12:32:02.466Z,24.40
2018-11-21T12:33:02.497Z,25.70
2018-11-21T12:34:02.454Z,26.90
2018-11-21T12:35:02.439Z,28.00
2018-11-21T12:36:02.419Z,26.10
2018-11-21T12:37:02.437Z,26.40
2018-11-21T12:38:02.409Z,26.80
2018-11-21T12:39:02.430Z,26.30
2018-11-21T12:40:02.388Z,27.40
2018-11-21T12:41:02.361Z,25.80
2018-11-21T12:42:02.352Z,25.60
2018-11-21T12:43:02.396Z,25.00
2018-11-21T12:44:02.336Z,25.50
2018-11-21T12:45:02.321Z,26.50
2018-11-21T12:46:02.401Z,27.00
2018-11-21T12:47:02.297Z,25.60
2018-11-21T12:48:02.289Z,26.30
2018-11-21T12:49:02.504Z,26.30
2018-11-21T12:50:02.328Z,25.70
2018-11-21T12:51:02.470Z,28.70
2018-11-21T12:52:02.249Z,25.20